sensor_id;sensor_type;location;lat;lon;timestamp;temperature;humidity
17887;DHT22;9069;52.044;7.472;2022-08-03T00:00:25;25.20;67.70
17887;DHT22;9069;52.044;7.472;2022-08-03T00:02:52;25.20;67.80
17887;DHT22;9069;52.044;7.472;2022-08-03T00:05:19;25.10;68.00
17887;DHT22;9069;52.044;7.472;2022-08-03T00:07:46;25.10;68.10
17887;DHT22;9069;52.044;7.472;2022-08-03T00:10:15;25.10;69.10
17887;DHT22;9069;52.044;7.472;2022-08-03T00:12:42;25.00;68.10
17887;DHT22;9069;52.044;7.472;2022-08-03T00:15:09;25.00;68.10
17887;DHT22;9069;52.044;7.472;2022-08-03T00:17:43;25.00;68.30
17887;DHT22;9069;52.044;7.472;2022-08-03T00:20:23;25.00;68.40
17887;DHT22;9069;52.044;7.472;2022-08-03T00:22:50;24.90;68.60
17887;DHT22;9069;52.044;7.472;2022-08-03T00:25:17;24.90;68.60
17887;DHT22;9069;52.044;7.472;2022-08-03T00:27:44;24.90;68.70
17887;DHT22;9069;52.044;7.472;2022-08-03T00:30:13;24.90;68.80
17887;DHT22;9069;52.044;7.472;2022-08-03T00:32:42;24.90;68.90
17887;DHT22;9069;52.044;7.472;2022-08-03T00:35:11;24.80;69.00
17887;DHT22;9069;52.044;7.472;2022-08-03T00:37:58;24.80;69.20
17887;DHT22;9069;52.044;7.472;2022-08-03T00:40:25;24.80;69.20
17887;DHT22;9069;52.044;7.472;2022-08-03T00:42:57;24.80;69.20
17887;DHT22;9069;52.044;7.472;2022-08-03T00:45:26;24.70;69.50
17887;DHT22;9069;52.044;7.472;2022-08-03T00:47:54;24.70;69.40
17887;DHT22;9069;52.044;7.472;2022-08-03T00:50:22;24.70;69.60
17887;DHT22;9069;52.044;7.472;2022-08-03T00:52:51;24.60;69.60
17887;DHT22;9069;52.044;7.472;2022-08-03T00:55:19;24.60;69.60
17887;DHT22;9069;52.044;7.472;2022-08-03T00:57:46;24.70;69.60
17887;DHT22;9069;52.044;7.472;2022-08-03T01:00:15;24.60;69.70
17887;DHT22;9069;52.044;7.472;2022-08-03T01:02:43;24.60;70.00
17887;DHT22;9069;52.044;7.472;2022-08-03T01:05:10;24.60;70.00
17887;DHT22;9069;52.044;7.472;2022-08-03T01:16:22;24.50;70.60
17887;DHT22;9069;52.044;7.472;2022-08-03T01:22:03;24.50;70.80
17887;DHT22;9069;52.044;7.472;2022-08-03T01:24:55;24.50;70.30
17887;DHT22;9069;52.044;7.472;2022-08-03T01:27:39;24.40;70.80
17887;DHT22;9069;52.044;7.472;2022-08-03T01:30:10;24.40;70.90
17887;DHT22;9069;52.044;7.472;2022-08-03T01:32:47;24.40;70.50
17887;DHT22;9069;52.044;7.472;2022-08-03T01:35:35;24.40;71.10
17887;DHT22;9069;52.044;7.472;2022-08-03T01:38:14;24.30;71.00
17887;DHT22;9069;52.044;7.472;2022-08-03T01:40:41;24.30;71.20
17887;DHT22;9069;52.044;7.472;2022-08-03T01:43:13;24.30;71.50
17887;DHT22;9069;52.044;7.472;2022-08-03T01:46:02;24.30;71.10
17887;DHT22;9069;52.044;7.472;2022-08-03T01:48:30;24.30;71.00
17887;DHT22;9069;52.044;7.472;2022-08-03T01:50:58;24.30;71.10
17887;DHT22;9069;52.044;7.472;2022-08-03T01:53:26;24.20;71.20
17887;DHT22;9069;52.044;7.472;2022-08-03T01:55:55;24.20;71.50
17887;DHT22;9069;52.044;7.472;2022-08-03T01:58:23;24.20;71.60
17887;DHT22;9069;52.044;7.472;2022-08-03T02:00:52;24.20;71.50
17887;DHT22;9069;52.044;7.472;2022-08-03T02:03:20;24.20;71.80
17887;DHT22;9069;52.044;7.472;2022-08-03T02:05:49;24.20;71.80
17887;DHT22;9069;52.044;7.472;2022-08-03T02:08:40;24.20;71.90
17887;DHT22;9069;52.044;7.472;2022-08-03T02:11:08;24.20;72.00
17887;DHT22;9069;52.044;7.472;2022-08-03T02:13:37;24.10;71.90
17887;DHT22;9069;52.044;7.472;2022-08-03T02:16:05;24.10;72.10
17887;DHT22;9069;52.044;7.472;2022-08-03T02:18:33;24.10;72.00
17887;DHT22;9069;52.044;7.472;2022-08-03T02:21:01;24.10;72.00
17887;DHT22;9069;52.044;7.472;2022-08-03T02:23:37;24.10;72.10
17887;DHT22;9069;52.044;7.472;2022-08-03T02:26:06;24.10;72.20
17887;DHT22;9069;52.044;7.472;2022-08-03T02:28:36;24.00;72.30
17887;DHT22;9069;52.044;7.472;2022-08-03T02:31:07;24.00;72.40
17887;DHT22;9069;52.044;7.472;2022-08-03T02:33:40;24.10;72.70
17887;DHT22;9069;52.044;7.472;2022-08-03T02:36:08;24.00;72.60
17887;DHT22;9069;52.044;7.472;2022-08-03T02:38:40;24.00;72.50
17887;DHT22;9069;52.044;7.472;2022-08-03T02:41:15;24.00;73.00
17887;DHT22;9069;52.044;7.472;2022-08-03T02:43:47;24.00;73.10
17887;DHT22;9069;52.044;7.472;2022-08-03T02:46:35;23.90;73.10
17887;DHT22;9069;52.044;7.472;2022-08-03T02:49:04;23.90;72.90
17887;DHT22;9069;52.044;7.472;2022-08-03T02:51:53;23.90;73.00
17887;DHT22;9069;52.044;7.472;2022-08-03T02:54:22;23.90;73.30
17887;DHT22;9069;52.044;7.472;2022-08-03T02:56:51;23.90;73.30
17887;DHT22;9069;52.044;7.472;2022-08-03T02:59:19;24.00;73.50
17887;DHT22;9069;52.044;7.472;2022-08-03T03:01:47;23.90;73.60
17887;DHT22;9069;52.044;7.472;2022-08-03T03:04:15;23.90;73.60
17887;DHT22;9069;52.044;7.472;2022-08-03T03:06:43;23.90;73.90
17887;DHT22;9069;52.044;7.472;2022-08-03T03:09:13;23.90;73.90
17887;DHT22;9069;52.044;7.472;2022-08-03T03:11:40;23.90;74.00
17887;DHT22;9069;52.044;7.472;2022-08-03T03:14:08;23.80;74.00
17887;DHT22;9069;52.044;7.472;2022-08-03T03:16:37;23.80;74.20
17887;DHT22;9069;52.044;7.472;2022-08-03T03:19:05;23.80;74.30
17887;DHT22;9069;52.044;7.472;2022-08-03T03:21:33;23.80;74.50
17887;DHT22;9069;52.044;7.472;2022-08-03T03:24:01;23.80;74.60
17887;DHT22;9069;52.044;7.472;2022-08-03T03:26:28;23.80;74.70
17887;DHT22;9069;52.044;7.472;2022-08-03T03:28:55;23.70;74.80
17887;DHT22;9069;52.044;7.472;2022-08-03T03:31:22;23.80;74.90
17887;DHT22;9069;52.044;7.472;2022-08-03T03:33:49;23.80;75.00
17887;DHT22;9069;52.044;7.472;2022-08-03T03:36:16;23.70;74.90
17887;DHT22;9069;52.044;7.472;2022-08-03T03:38:43;23.70;75.10
17887;DHT22;9069;52.044;7.472;2022-08-03T03:41:10;23.80;75.40
17887;DHT22;9069;52.044;7.472;2022-08-03T03:43:37;23.70;75.60
17887;DHT22;9069;52.044;7.472;2022-08-03T03:46:04;23.70;75.50
17887;DHT22;9069;52.044;7.472;2022-08-03T03:48:32;23.70;75.80
17887;DHT22;9069;52.044;7.472;2022-08-03T03:50:59;23.70;76.10
17887;DHT22;9069;52.044;7.472;2022-08-03T03:53:26;23.60;76.20
17887;DHT22;9069;52.044;7.472;2022-08-03T03:55:53;23.70;76.30
17887;DHT22;9069;52.044;7.472;2022-08-03T03:58:29;23.60;76.40
17887;DHT22;9069;52.044;7.472;2022-08-03T04:00:56;23.60;76.70
17887;DHT22;9069;52.044;7.472;2022-08-03T04:03:23;23.60;76.80
17887;DHT22;9069;52.044;7.472;2022-08-03T04:05:50;23.50;76.90
17887;DHT22;9069;52.044;7.472;2022-08-03T04:08:35;23.50;77.00
17887;DHT22;9069;52.044;7.472;2022-08-03T04:11:27;23.50;77.10
17887;DHT22;9069;52.044;7.472;2022-08-03T04:14:21;23.50;77.50
17887;DHT22;9069;52.044;7.472;2022-08-03T04:16:52;23.50;78.20
17887;DHT22;9069;52.044;7.472;2022-08-03T04:22:06;23.40;78.30
17887;DHT22;9069;52.044;7.472;2022-08-03T04:24:54;23.40;78.10
17887;DHT22;9069;52.044;7.472;2022-08-03T04:27:24;23.40;78.80
17887;DHT22;9069;52.044;7.472;2022-08-03T04:29:54;23.40;78.40
17887;DHT22;9069;52.044;7.472;2022-08-03T04:32:22;23.40;78.60
17887;DHT22;9069;52.044;7.472;2022-08-03T04:34:51;23.30;78.80
17887;DHT22;9069;52.044;7.472;2022-08-03T04:37:42;23.30;79.10
17887;DHT22;9069;52.044;7.472;2022-08-03T04:40:25;23.30;80.30
17887;DHT22;9069;52.044;7.472;2022-08-03T04:42:56;23.30;79.80
17887;DHT22;9069;52.044;7.472;2022-08-03T04:45:26;23.30;80.20
17887;DHT22;9069;52.044;7.472;2022-08-03T04:47:53;23.30;80.50
17887;DHT22;9069;52.044;7.472;2022-08-03T04:50:21;23.40;80.70
17887;DHT22;9069;52.044;7.472;2022-08-03T04:53:04;23.40;81.70
17887;DHT22;9069;52.044;7.472;2022-08-03T04:55:32;23.50;81.50
17887;DHT22;9069;52.044;7.472;2022-08-03T04:58:01;23.50;81.90
17887;DHT22;9069;52.044;7.472;2022-08-03T05:00:28;23.60;82.20
17887;DHT22;9069;52.044;7.472;2022-08-03T05:02:55;23.70;82.50
17887;DHT22;9069;52.044;7.472;2022-08-03T05:05:22;23.80;82.70
17887;DHT22;9069;52.044;7.472;2022-08-03T05:07:50;23.90;83.00
17887;DHT22;9069;52.044;7.472;2022-08-03T05:10:18;24.10;83.20
17887;DHT22;9069;52.044;7.472;2022-08-03T05:12:47;24.20;83.20
17887;DHT22;9069;52.044;7.472;2022-08-03T05:15:14;24.30;83.00
17887;DHT22;9069;52.044;7.472;2022-08-03T05:17:41;24.50;83.00
17887;DHT22;9069;52.044;7.472;2022-08-03T05:20:09;24.70;82.70
17887;DHT22;9069;52.044;7.472;2022-08-03T05:22:36;24.90;82.20
17887;DHT22;9069;52.044;7.472;2022-08-03T05:25:02;25.00;81.60
17887;DHT22;9069;52.044;7.472;2022-08-03T05:27:29;25.20;80.90
17887;DHT22;9069;52.044;7.472;2022-08-03T05:29:56;25.40;80.20
17887;DHT22;9069;52.044;7.472;2022-08-03T05:32:43;25.50;79.50
17887;DHT22;9069;52.044;7.472;2022-08-03T05:35:09;25.60;79.00
17887;DHT22;9069;52.044;7.472;2022-08-03T05:37:56;25.70;78.60
17887;DHT22;9069;52.044;7.472;2022-08-03T05:40:23;25.80;78.40
17887;DHT22;9069;52.044;7.472;2022-08-03T05:42:52;25.80;77.70
17887;DHT22;9069;52.044;7.472;2022-08-03T05:45:19;25.90;77.50
17887;DHT22;9069;52.044;7.472;2022-08-03T05:47:48;25.90;77.30
17887;DHT22;9069;52.044;7.472;2022-08-03T05:50:18;25.90;77.30
17887;DHT22;9069;52.044;7.472;2022-08-03T05:52:44;25.90;77.20
17887;DHT22;9069;52.044;7.472;2022-08-03T05:55:12;25.90;77.30
17887;DHT22;9069;52.044;7.472;2022-08-03T05:57:39;26.00;77.50
17887;DHT22;9069;52.044;7.472;2022-08-03T06:00:10;26.00;77.50
17887;DHT22;9069;52.044;7.472;2022-08-03T06:02:38;26.00;77.30
17887;DHT22;9069;52.044;7.472;2022-08-03T06:05:05;26.10;77.60
17887;DHT22;9069;52.044;7.472;2022-08-03T06:07:32;26.10;77.40
17887;DHT22;9069;52.044;7.472;2022-08-03T06:09:59;26.20;77.50
17887;DHT22;9069;52.044;7.472;2022-08-03T06:12:48;26.20;77.60
17887;DHT22;9069;52.044;7.472;2022-08-03T06:15:16;26.30;77.90
17887;DHT22;9069;52.044;7.472;2022-08-03T06:17:48;26.30;78.00
17887;DHT22;9069;52.044;7.472;2022-08-03T06:20:17;26.40;78.50
17887;DHT22;9069;52.044;7.472;2022-08-03T06:22:45;26.40;78.50
17887;DHT22;9069;52.044;7.472;2022-08-03T06:25:25;26.50;78.70
17887;DHT22;9069;52.044;7.472;2022-08-03T06:27:52;26.60;78.80
17887;DHT22;9069;52.044;7.472;2022-08-03T06:30:19;26.70;79.20
17887;DHT22;9069;52.044;7.472;2022-08-03T06:32:47;26.80;79.20
17887;DHT22;9069;52.044;7.472;2022-08-03T06:35:18;26.90;79.10
17887;DHT22;9069;52.044;7.472;2022-08-03T06:37:47;27.10;78.70
17887;DHT22;9069;52.044;7.472;2022-08-03T06:40:16;27.20;78.70
17887;DHT22;9069;52.044;7.472;2022-08-03T06:42:50;27.40;79.20
17887;DHT22;9069;52.044;7.472;2022-08-03T06:45:16;27.50;79.40
17887;DHT22;9069;52.044;7.472;2022-08-03T06:47:43;27.80;79.80
17887;DHT22;9069;52.044;7.472;2022-08-03T06:50:10;28.00;80.30
17887;DHT22;9069;52.044;7.472;2022-08-03T06:52:43;28.30;80.30
17887;DHT22;9069;52.044;7.472;2022-08-03T06:55:10;28.60;79.10
17887;DHT22;9069;52.044;7.472;2022-08-03T06:57:37;28.90;77.90
17887;DHT22;9069;52.044;7.472;2022-08-03T07:00:05;29.20;76.80
17887;DHT22;9069;52.044;7.472;2022-08-03T07:02:38;29.50;75.90
17887;DHT22;9069;52.044;7.472;2022-08-03T07:05:06;29.80;74.80
17887;DHT22;9069;52.044;7.472;2022-08-03T07:07:33;30.20;74.20
17887;DHT22;9069;52.044;7.472;2022-08-03T07:09:59;30.50;73.50
17887;DHT22;9069;52.044;7.472;2022-08-03T07:12:29;30.80;72.30
17887;DHT22;9069;52.044;7.472;2022-08-03T07:14:57;31.20;71.30
17887;DHT22;9069;52.044;7.472;2022-08-03T07:17:28;31.50;70.70
17887;DHT22;9069;52.044;7.472;2022-08-03T07:19:56;31.90;69.40
17887;DHT22;9069;52.044;7.472;2022-08-03T07:22:22;32.20;68.10
17887;DHT22;9069;52.044;7.472;2022-08-03T07:24:49;32.50;67.00
17887;DHT22;9069;52.044;7.472;2022-08-03T07:27:16;32.80;65.80
17887;DHT22;9069;52.044;7.472;2022-08-03T07:29:42;33.00;64.90
17887;DHT22;9069;52.044;7.472;2022-08-03T07:32:09;33.30;64.40
17887;DHT22;9069;52.044;7.472;2022-08-03T07:34:36;33.50;63.70
17887;DHT22;9069;52.044;7.472;2022-08-03T07:37:03;33.70;63.10
17887;DHT22;9069;52.044;7.472;2022-08-03T07:39:29;34.00;62.40
17887;DHT22;9069;52.044;7.472;2022-08-03T07:41:56;34.20;61.90
17887;DHT22;9069;52.044;7.472;2022-08-03T07:44:23;34.40;61.10
17887;DHT22;9069;52.044;7.472;2022-08-03T07:46:49;34.70;60.60
17887;DHT22;9069;52.044;7.472;2022-08-03T07:49:17;34.90;60.00
17887;DHT22;9069;52.044;7.472;2022-08-03T07:51:44;35.10;59.60
17887;DHT22;9069;52.044;7.472;2022-08-03T07:54:11;35.40;58.90
17887;DHT22;9069;52.044;7.472;2022-08-03T07:56:38;35.60;58.40
17887;DHT22;9069;52.044;7.472;2022-08-03T07:59:04;35.80;57.80
17887;DHT22;9069;52.044;7.472;2022-08-03T08:01:31;36.00;57.30
17887;DHT22;9069;52.044;7.472;2022-08-03T08:04:01;36.20;56.80
17887;DHT22;9069;52.044;7.472;2022-08-03T08:06:28;36.40;56.30
17887;DHT22;9069;52.044;7.472;2022-08-03T08:08:54;36.60;56.10
17887;DHT22;9069;52.044;7.472;2022-08-03T08:11:25;36.70;55.90
17887;DHT22;9069;52.044;7.472;2022-08-03T08:13:51;36.90;55.30
17887;DHT22;9069;52.044;7.472;2022-08-03T08:16:18;37.10;55.10
17887;DHT22;9069;52.044;7.472;2022-08-03T08:18:45;37.20;54.40
17887;DHT22;9069;52.044;7.472;2022-08-03T08:21:11;37.40;54.00
17887;DHT22;9069;52.044;7.472;2022-08-03T08:23:38;37.50;53.80
17887;DHT22;9069;52.044;7.472;2022-08-03T08:26:10;37.70;53.50
17887;DHT22;9069;52.044;7.472;2022-08-03T08:28:37;37.80;53.10
17887;DHT22;9069;52.044;7.472;2022-08-03T08:31:04;38.00;53.10
17887;DHT22;9069;52.044;7.472;2022-08-03T08:33:31;38.10;52.80
17887;DHT22;9069;52.044;7.472;2022-08-03T08:36:20;38.30;53.30
17887;DHT22;9069;52.044;7.472;2022-08-03T08:38:46;38.50;52.60
17887;DHT22;9069;52.044;7.472;2022-08-03T08:41:14;38.70;52.10
17887;DHT22;9069;52.044;7.472;2022-08-03T08:43:41;38.90;51.50
17887;DHT22;9069;52.044;7.472;2022-08-03T08:46:12;39.10;51.30
17887;DHT22;9069;52.044;7.472;2022-08-03T08:48:50;39.20;50.20
17887;DHT22;9069;52.044;7.472;2022-08-03T08:51:19;39.40;50.60
17887;DHT22;9069;52.044;7.472;2022-08-03T08:53:50;39.60;50.30
17887;DHT22;9069;52.044;7.472;2022-08-03T08:56:17;39.70;50.00
17887;DHT22;9069;52.044;7.472;2022-08-03T08:58:51;39.80;50.00
17887;DHT22;9069;52.044;7.472;2022-08-03T09:01:19;40.00;49.40
17887;DHT22;9069;52.044;7.472;2022-08-03T09:03:46;40.10;49.50
17887;DHT22;9069;52.044;7.472;2022-08-03T09:06:13;40.20;49.10
17887;DHT22;9069;52.044;7.472;2022-08-03T09:08:40;40.30;48.90
17887;DHT22;9069;52.044;7.472;2022-08-03T09:11:07;40.40;48.50
17887;DHT22;9069;52.044;7.472;2022-08-03T09:13:37;40.40;48.00
17887;DHT22;9069;52.044;7.472;2022-08-03T09:16:17;40.40;48.40
17887;DHT22;9069;52.044;7.472;2022-08-03T09:18:47;40.50;47.90
17887;DHT22;9069;52.044;7.472;2022-08-03T09:23:58;40.60;47.90
17887;DHT22;9069;52.044;7.472;2022-08-03T09:26:30;40.60;47.60
17887;DHT22;9069;52.044;7.472;2022-08-03T09:29:05;40.70;47.60
17887;DHT22;9069;52.044;7.472;2022-08-03T09:31:42;40.70;47.40
17887;DHT22;9069;52.044;7.472;2022-08-03T09:34:12;40.80;47.30
17887;DHT22;9069;52.044;7.472;2022-08-03T09:36:47;40.80;47.10
17887;DHT22;9069;52.044;7.472;2022-08-03T09:41:44;41.00;47.60
17887;DHT22;9069;52.044;7.472;2022-08-03T09:44:11;41.10;47.20
17887;DHT22;9069;52.044;7.472;2022-08-03T09:46:53;41.20;47.00
17887;DHT22;9069;52.044;7.472;2022-08-03T09:49:21;41.40;46.60
17887;DHT22;9069;52.044;7.472;2022-08-03T09:51:48;41.50;46.70
17887;DHT22;9069;52.044;7.472;2022-08-03T09:54:35;41.60;46.30
17887;DHT22;9069;52.044;7.472;2022-08-03T09:57:02;41.70;46.40
17887;DHT22;9069;52.044;7.472;2022-08-03T09:59:30;41.70;46.00
17887;DHT22;9069;52.044;7.472;2022-08-03T10:01:58;41.80;45.50
17887;DHT22;9069;52.044;7.472;2022-08-03T10:04:28;41.80;46.00
17887;DHT22;9069;52.044;7.472;2022-08-03T10:07:09;41.80;45.80
17887;DHT22;9069;52.044;7.472;2022-08-03T10:09:36;41.80;45.30
17887;DHT22;9069;52.044;7.472;2022-08-03T10:12:11;42.00;46.00
17887;DHT22;9069;52.044;7.472;2022-08-03T10:14:40;42.10;45.00
17887;DHT22;9069;52.044;7.472;2022-08-03T10:17:08;42.20;45.70
17887;DHT22;9069;52.044;7.472;2022-08-03T10:19:35;42.40;45.30
17887;DHT22;9069;52.044;7.472;2022-08-03T10:22:05;42.50;44.80
17887;DHT22;9069;52.044;7.472;2022-08-03T10:24:34;42.70;44.20
17887;DHT22;9069;52.044;7.472;2022-08-03T10:27:05;42.80;43.90
17887;DHT22;9069;52.044;7.472;2022-08-03T10:29:40;42.90;43.20
17887;DHT22;9069;52.044;7.472;2022-08-03T10:32:14;42.90;43.20
17887;DHT22;9069;52.044;7.472;2022-08-03T10:34:44;42.90;42.90
17887;DHT22;9069;52.044;7.472;2022-08-03T10:37:14;42.80;43.10
17887;DHT22;9069;52.044;7.472;2022-08-03T10:39:43;42.60;42.90
17887;DHT22;9069;52.044;7.472;2022-08-03T10:42:21;42.50;43.00
17887;DHT22;9069;52.044;7.472;2022-08-03T10:44:54;42.40;42.80
17887;DHT22;9069;52.044;7.472;2022-08-03T10:47:21;42.30;42.90
17887;DHT22;9069;52.044;7.472;2022-08-03T10:49:48;42.20;43.50
17887;DHT22;9069;52.044;7.472;2022-08-03T10:52:15;42.10;43.10
17887;DHT22;9069;52.044;7.472;2022-08-03T10:54:59;42.00;43.30
17887;DHT22;9069;52.044;7.472;2022-08-03T10:57:53;41.90;43.30
17887;DHT22;9069;52.044;7.472;2022-08-03T11:00:26;41.60;43.30
17887;DHT22;9069;52.044;7.472;2022-08-03T11:05:31;41.40;43.70
17887;DHT22;9069;52.044;7.472;2022-08-03T11:08:25;41.20;43.90
17887;DHT22;9069;52.044;7.472;2022-08-03T11:10:56;41.10;43.70
17887;DHT22;9069;52.044;7.472;2022-08-03T11:13:25;40.90;43.90
17887;DHT22;9069;52.044;7.472;2022-08-03T11:15:55;40.80;44.50
17887;DHT22;9069;52.044;7.472;2022-08-03T11:18:29;40.60;44.10
17887;DHT22;9069;52.044;7.472;2022-08-03T11:20:57;40.50;44.30
17887;DHT22;9069;52.044;7.472;2022-08-03T11:23:45;40.40;44.30
17887;DHT22;9069;52.044;7.472;2022-08-03T11:26:32;40.30;44.40
17887;DHT22;9069;52.044;7.472;2022-08-03T11:29:28;40.10;44.10
17887;DHT22;9069;52.044;7.472;2022-08-03T11:31:55;39.90;44.50
17887;DHT22;9069;52.044;7.472;2022-08-03T11:34:22;39.80;44.30
17887;DHT22;9069;52.044;7.472;2022-08-03T11:39:48;39.40;44.50
17887;DHT22;9069;52.044;7.472;2022-08-03T11:47:19;39.00;45.40
17887;DHT22;9069;52.044;7.472;2022-08-03T11:49:48;38.90;45.90
17887;DHT22;9069;52.044;7.472;2022-08-03T11:52:16;38.70;45.60
17887;DHT22;9069;52.044;7.472;2022-08-03T11:54:44;38.60;45.80
17887;DHT22;9069;52.044;7.472;2022-08-03T11:57:11;38.50;45.90
17887;DHT22;9069;52.044;7.472;2022-08-03T11:59:38;38.50;45.80
17887;DHT22;9069;52.044;7.472;2022-08-03T12:02:12;38.30;46.20
17887;DHT22;9069;52.044;7.472;2022-08-03T12:04:50;38.20;45.90
17887;DHT22;9069;52.044;7.472;2022-08-03T12:07:17;38.10;46.30
17887;DHT22;9069;52.044;7.472;2022-08-03T12:10:05;38.10;46.30
17887;DHT22;9069;52.044;7.472;2022-08-03T12:12:32;38.00;46.40
17887;DHT22;9069;52.044;7.472;2022-08-03T12:14:59;38.00;46.30
17887;DHT22;9069;52.044;7.472;2022-08-03T12:17:39;37.90;46.30
17887;DHT22;9069;52.044;7.472;2022-08-03T12:20:09;37.80;46.40
17887;DHT22;9069;52.044;7.472;2022-08-03T12:22:39;37.70;46.80
17887;DHT22;9069;52.044;7.472;2022-08-03T12:25:07;37.70;46.30
17887;DHT22;9069;52.044;7.472;2022-08-03T12:27:35;37.50;46.10
17887;DHT22;9069;52.044;7.472;2022-08-03T12:30:02;37.50;46.60
17887;DHT22;9069;52.044;7.472;2022-08-03T12:32:29;37.40;46.40
17887;DHT22;9069;52.044;7.472;2022-08-03T12:34:57;37.30;46.70
17887;DHT22;9069;52.044;7.472;2022-08-03T12:37:27;37.20;46.20
17887;DHT22;9069;52.044;7.472;2022-08-03T12:39:58;37.20;46.60
17887;DHT22;9069;52.044;7.472;2022-08-03T12:42:37;37.10;47.10
17887;DHT22;9069;52.044;7.472;2022-08-03T12:45:28;37.10;46.90
17887;DHT22;9069;52.044;7.472;2022-08-03T12:48:01;37.00;46.40
17887;DHT22;9069;52.044;7.472;2022-08-03T12:50:30;36.90;46.70
17887;DHT22;9069;52.044;7.472;2022-08-03T12:53:02;36.80;47.10
17887;DHT22;9069;52.044;7.472;2022-08-03T12:55:30;36.70;47.20
17887;DHT22;9069;52.044;7.472;2022-08-03T12:58:34;36.70;47.70
17887;DHT22;9069;52.044;7.472;2022-08-03T13:01:03;36.60;48.20
17887;DHT22;9069;52.044;7.472;2022-08-03T13:03:43;36.60;47.70
17887;DHT22;9069;52.044;7.472;2022-08-03T13:06:23;36.60;47.50
17887;DHT22;9069;52.044;7.472;2022-08-03T13:09:06;36.50;47.50
17887;DHT22;9069;52.044;7.472;2022-08-03T13:11:34;36.50;47.70
17887;DHT22;9069;52.044;7.472;2022-08-03T13:14:20;36.40;47.60
17887;DHT22;9069;52.044;7.472;2022-08-03T13:16:49;36.40;47.80
17887;DHT22;9069;52.044;7.472;2022-08-03T13:19:16;36.30;47.70
17887;DHT22;9069;52.044;7.472;2022-08-03T13:21:43;36.30;48.10
17887;DHT22;9069;52.044;7.472;2022-08-03T13:24:29;36.30;47.60
17887;DHT22;9069;52.044;7.472;2022-08-03T13:26:57;36.20;47.80
17887;DHT22;9069;52.044;7.472;2022-08-03T13:29:24;36.20;47.80
17887;DHT22;9069;52.044;7.472;2022-08-03T13:31:50;36.20;47.90
17887;DHT22;9069;52.044;7.472;2022-08-03T13:34:17;36.10;47.80
17887;DHT22;9069;52.044;7.472;2022-08-03T13:36:50;36.10;47.50
17887;DHT22;9069;52.044;7.472;2022-08-03T13:39:35;36.10;47.70
17887;DHT22;9069;52.044;7.472;2022-08-03T13:42:22;36.10;48.20
17887;DHT22;9069;52.044;7.472;2022-08-03T13:44:48;36.10;48.40
17887;DHT22;9069;52.044;7.472;2022-08-03T13:47:15;36.00;48.20
17887;DHT22;9069;52.044;7.472;2022-08-03T13:49:42;36.00;48.20
17887;DHT22;9069;52.044;7.472;2022-08-03T13:52:26;36.00;48.20
17887;DHT22;9069;52.044;7.472;2022-08-03T13:54:53;36.00;48.00
17887;DHT22;9069;52.044;7.472;2022-08-03T13:57:20;36.00;48.20
17887;DHT22;9069;52.044;7.472;2022-08-03T14:00:08;35.90;48.10
17887;DHT22;9069;52.044;7.472;2022-08-03T14:02:35;35.90;48.20
17887;DHT22;9069;52.044;7.472;2022-08-03T14:05:02;35.90;48.10
17887;DHT22;9069;52.044;7.472;2022-08-03T14:07:29;35.90;48.10
17887;DHT22;9069;52.044;7.472;2022-08-03T14:09:56;35.90;48.40
17887;DHT22;9069;52.044;7.472;2022-08-03T14:12:22;35.90;48.30
17887;DHT22;9069;52.044;7.472;2022-08-03T14:14:49;35.90;48.20
17887;DHT22;9069;52.044;7.472;2022-08-03T14:17:16;35.90;48.30
17887;DHT22;9069;52.044;7.472;2022-08-03T14:19:43;35.90;48.30
17887;DHT22;9069;52.044;7.472;2022-08-03T14:22:19;35.90;48.30
17887;DHT22;9069;52.044;7.472;2022-08-03T14:24:47;35.90;48.00
17887;DHT22;9069;52.044;7.472;2022-08-03T14:27:15;35.90;48.00
17887;DHT22;9069;52.044;7.472;2022-08-03T14:29:42;35.90;48.20
17887;DHT22;9069;52.044;7.472;2022-08-03T14:32:09;35.90;48.10
17887;DHT22;9069;52.044;7.472;2022-08-03T14:34:39;35.90;48.10
17887;DHT22;9069;52.044;7.472;2022-08-03T14:37:06;35.90;47.90
17887;DHT22;9069;52.044;7.472;2022-08-03T14:39:33;35.80;47.80
17887;DHT22;9069;52.044;7.472;2022-08-03T14:42:20;35.80;47.50
17887;DHT22;9069;52.044;7.472;2022-08-03T14:44:47;35.80;47.50
17887;DHT22;9069;52.044;7.472;2022-08-03T14:47:14;35.80;47.50
17887;DHT22;9069;52.044;7.472;2022-08-03T14:49:41;35.70;47.70
17887;DHT22;9069;52.044;7.472;2022-08-03T14:52:28;35.70;47.70
17887;DHT22;9069;52.044;7.472;2022-08-03T14:54:55;35.70;47.60
17887;DHT22;9069;52.044;7.472;2022-08-03T14:57:22;35.60;47.50
17887;DHT22;9069;52.044;7.472;2022-08-03T14:59:49;35.60;47.70
17887;DHT22;9069;52.044;7.472;2022-08-03T15:02:23;35.60;47.50
17887;DHT22;9069;52.044;7.472;2022-08-03T15:04:51;35.60;47.80
17887;DHT22;9069;52.044;7.472;2022-08-03T15:07:18;35.50;48.20
17887;DHT22;9069;52.044;7.472;2022-08-03T15:09:46;35.50;47.90
17887;DHT22;9069;52.044;7.472;2022-08-03T15:12:13;35.40;47.90
17887;DHT22;9069;52.044;7.472;2022-08-03T15:14:40;35.40;47.50
17887;DHT22;9069;52.044;7.472;2022-08-03T15:17:07;35.30;47.80
17887;DHT22;9069;52.044;7.472;2022-08-03T15:19:33;35.30;47.90
17887;DHT22;9069;52.044;7.472;2022-08-03T15:22:20;35.30;47.60
17887;DHT22;9069;52.044;7.472;2022-08-03T15:25:01;35.30;47.60
17887;DHT22;9069;52.044;7.472;2022-08-03T15:27:28;35.20;47.40
17887;DHT22;9069;52.044;7.472;2022-08-03T15:29:55;35.20;47.50
17887;DHT22;9069;52.044;7.472;2022-08-03T15:32:35;35.10;47.60
17887;DHT22;9069;52.044;7.472;2022-08-03T15:35:02;35.10;47.70
17887;DHT22;9069;52.044;7.472;2022-08-03T15:37:29;35.10;47.50
17887;DHT22;9069;52.044;7.472;2022-08-03T15:39:56;35.10;47.70
17887;DHT22;9069;52.044;7.472;2022-08-03T15:42:29;35.00;47.50
17887;DHT22;9069;52.044;7.472;2022-08-03T15:44:56;34.90;47.30
17887;DHT22;9069;52.044;7.472;2022-08-03T15:47:23;34.90;47.50
17887;DHT22;9069;52.044;7.472;2022-08-03T15:49:50;34.90;47.70
17887;DHT22;9069;52.044;7.472;2022-08-03T15:52:17;34.90;48.00
17887;DHT22;9069;52.044;7.472;2022-08-03T15:54:44;34.80;47.90
17887;DHT22;9069;52.044;7.472;2022-08-03T15:57:10;34.80;47.90
17887;DHT22;9069;52.044;7.472;2022-08-03T15:59:37;34.70;48.10
17887;DHT22;9069;52.044;7.472;2022-08-03T16:02:04;34.70;48.00
17887;DHT22;9069;52.044;7.472;2022-08-03T16:04:30;34.70;48.10
17887;DHT22;9069;52.044;7.472;2022-08-03T16:06:57;34.70;48.40
17887;DHT22;9069;52.044;7.472;2022-08-03T16:09:24;34.60;48.50
17887;DHT22;9069;52.044;7.472;2022-08-03T16:12:09;34.60;48.50
17887;DHT22;9069;52.044;7.472;2022-08-03T16:14:43;34.60;48.70
17887;DHT22;9069;52.044;7.472;2022-08-03T16:17:19;34.60;49.80
17887;DHT22;9069;52.044;7.472;2022-08-03T16:19:46;34.50;49.00
17887;DHT22;9069;52.044;7.472;2022-08-03T16:22:13;34.50;49.30
17887;DHT22;9069;52.044;7.472;2022-08-03T16:24:40;34.50;49.10
17887;DHT22;9069;52.044;7.472;2022-08-03T16:27:07;34.50;49.40
17887;DHT22;9069;52.044;7.472;2022-08-03T16:29:54;34.60;49.50
17887;DHT22;9069;52.044;7.472;2022-08-03T16:32:20;34.50;49.40
17887;DHT22;9069;52.044;7.472;2022-08-03T16:34:47;34.50;49.40
17887;DHT22;9069;52.044;7.472;2022-08-03T16:37:14;34.50;49.50